createdAt,value
2023-04-20T00:00:54.819Z,96841.06
2023-04-20T00:01:59.110Z,96836.03
2023-04-20T00:03:02.077Z,96839.81
2023-04-20T00:04:04.214Z,96838.63
2023-04-20T00:05:09.031Z,96832.13
2023-04-20T00:06:10.869Z,96833.75
2023-04-20T00:07:13.112Z,96835.50
2023-04-20T00:08:15.022Z,96833.91
2023-04-20T00:09:17.178Z,96828.34
2023-04-20T00:10:20.014Z,96832.56
2023-04-20T00:11:21.840Z,96830.31
2023-04-20T00:12:23.612Z,96826.66
2023-04-20T00:13:26.524Z,96826.38
2023-04-20T00:14:28.323Z,96828.34
2023-04-20T00:15:30.541Z,96823.34
2023-04-20T00:16:32.379Z,96828.19
2023-04-20T00:17:34.305Z,96816.81
2023-04-20T00:18:36.116Z,96822.00
2023-04-20T00:19:37.864Z,96817.66
2023-04-20T00:20:40.063Z,96817.66
2023-04-20T00:21:42.005Z,96820.88
2023-04-20T00:22:43.822Z,96822.81
2023-04-20T00:23:45.586Z,96817.66
2023-04-20T00:24:47.387Z,96813.88
2023-04-20T00:25:51.016Z,96822.28
2023-04-20T00:26:52.852Z,96818.53
2023-04-20T00:27:54.617Z,96823.88
2023-04-20T00:28:56.537Z,96822.91
2023-04-20T00:29:58.314Z,96828.91
2023-04-20T00:31:00.158Z,96819.69
2023-04-20T00:32:02.041Z,96821.03
2023-04-20T00:33:03.972Z,96825.59
2023-04-20T00:34:05.929Z,96828.81
2023-04-20T00:35:08.167Z,96816.81
2023-04-20T00:36:10.069Z,96825.22
2023-04-20T00:37:11.901Z,96824.09
2023-04-20T00:38:13.864Z,96811.75
2023-04-20T00:39:16.712Z,96815.13
2023-04-20T00:40:18.826Z,96819.31
2023-04-20T00:41:20.617Z,96820.50
2023-04-20T00:42:22.448Z,96821.66
2023-04-20T00:43:24.380Z,96816.38
2023-04-20T00:44:26.120Z,96814.59
2023-04-20T00:45:27.865Z,96814.75
2023-04-20T00:46:29.811Z,96812.53
2023-04-20T00:47:31.684Z,96809.66
2023-04-20T00:48:33.558Z,96805.66
2023-04-20T00:49:35.432Z,96804.81
2023-04-20T00:50:37.707Z,96806.63
2023-04-20T00:51:40.017Z,96806.63
2023-04-20T00:52:41.989Z,96794.66
2023-04-20T00:53:44.805Z,96800.63
2023-04-20T00:54:46.738Z,96799.31
2023-04-20T00:55:49.078Z,96803.16
2023-04-20T00:56:52.305Z,96800.38
2023-04-20T00:57:54.100Z,96801.34
2023-04-20T00:58:56.200Z,96804.31
2023-04-20T00:59:58.095Z,96796.53
2023-04-20T01:01:00.058Z,96793.78
2023-04-20T01:02:01.947Z,96789.22
2023-04-20T01:03:05.324Z,96787.25
2023-04-20T01:04:08.099Z,96785.72
2023-04-20T01:05:10.760Z,96779.75
2023-04-20T01:06:14.083Z,96787.34
2023-04-20T01:07:16.032Z,96782.97
2023-04-20T01:08:17.873Z,96781.78
2023-04-20T01:09:19.903Z,96779.41
2023-04-20T01:10:21.836Z,96775.97
2023-04-20T01:11:23.736Z,96783.59
2023-04-20T01:12:25.929Z,96778.22
2023-04-20T01:13:27.730Z,96778.69
2023-04-20T01:14:29.511Z,96777.84
2023-04-20T01:15:31.372Z,96769.91
2023-04-20T01:16:35.073Z,96773.13
2023-04-20T01:17:42.143Z,96772.94
2023-04-20T01:18:48.639Z,96766.16
2023-04-20T01:19:50.747Z,96767.94
2023-04-20T01:20:52.490Z,96762.59
2023-04-20T01:21:54.483Z,96760.00
2023-04-20T01:22:57.146Z,96765.91
2023-04-20T01:23:58.914Z,96765.00
2023-04-20T01:25:00.804Z,96763.75
2023-04-20T01:26:06.512Z,96760.53
2023-04-20T01:27:08.273Z,96763.75
2023-04-20T01:28:10.146Z,96764.56
2023-04-20T01:29:11.875Z,96765.38
2023-04-20T01:30:13.877Z,96762.22
2023-04-20T01:31:15.730Z,96761.25
2023-04-20T01:32:18.089Z,96763.66
2023-04-20T01:33:19.814Z,96765.28
2023-04-20T01:34:21.647Z,96763.66
2023-04-20T01:35:23.411Z,96758.47
2023-04-20T01:36:25.203Z,96755.06
2023-04-20T01:37:27.149Z,96758.47
2023-04-20T01:38:29.005Z,96752.94
2023-04-20T01:39:31.358Z,96755.16
2023-04-20T01:40:34.072Z,96755.34
2023-04-20T01:41:36.046Z,96752.94
2023-04-20T01:42:37.987Z,96752.56
2023-04-20T01:43:39.964Z,96754.81
2023-04-20T01:44:41.806Z,96746.88
2023-04-20T01:45:45.222Z,96751.66
2023-04-20T01:46:46.995Z,96745.69
2023-04-20T01:47:48.822Z,96749.25
2023-04-20T01:48:50.627Z,96749.81
2023-04-20T01:49:52.389Z,96747.75
2023-04-20T01:50:55.137Z,96745.97
2023-04-20T01:51:57.475Z,96749.19
2023-04-20T01:52:59.263Z,96744.63
2023-04-20T01:54:01.512Z,96745.25
2023-04-20T01:55:03.332Z,96742.03
2023-04-20T01:56:06.182Z,96738.81
2023-04-20T01:57:07.986Z,96743.81
2023-04-20T01:58:09.909Z,96737.28
2023-04-20T01:59:11.661Z,96732.09
2023-04-20T02:00:13.917Z,96736.94
2023-04-20T02:01:16.178Z,96734.16
2023-04-20T02:02:18.449Z,96728.16
2023-04-20T02:03:20.412Z,96727.19
2023-04-20T02:04:23.520Z,96720.13
2023-04-20T02:05:25.384Z,96728.44
2023-04-20T02:06:27.190Z,96723.44
2023-04-20T02:07:28.892Z,96723.44
2023-04-20T02:08:30.756Z,96721.84
2023-04-20T02:09:32.540Z,96718.00
2023-04-20T02:10:34.301Z,96716.81
2023-04-20T02:11:37.139Z,96719.25
2023-04-20T02:12:38.943Z,96725.22
2023-04-20T02:13:40.750Z,96716.03
2023-04-20T02:14:42.560Z,96712.03
2023-04-20T02:15:44.312Z,96712.38
2023-04-20T02:16:48.256Z,96716.06
2023-04-20T02:17:52.969Z,96706.31
2023-04-20T02:18:55.278Z,96716.47
2023-04-20T02:19:57.065Z,96713.88
2023-04-20T02:20:59.367Z,96711.91
2023-04-20T02:22:01.586Z,96716.47
2023-04-20T02:23:04.317Z,96714.50
2023-04-20T02:24:06.613Z,96717.09
2023-04-20T02:25:09.099Z,96717.09
2023-04-20T02:26:10.842Z,96711.91
2023-04-20T02:27:12.600Z,96717.72
2023-04-20T02:28:14.404Z,96712.38
2023-04-20T02:29:16.652Z,96715.75
2023-04-20T02:30:18.536Z,96715.75
2023-04-20T02:31:20.373Z,96715.13
2023-04-20T02:32:22.233Z,96712.75
2023-04-20T02:33:25.198Z,96716.47
2023-04-20T02:34:26.983Z,96714.50
2023-04-20T02:35:28.829Z,96711.56
2023-04-20T02:36:31.162Z,96709.94
2023-04-20T02:37:33.021Z,96712.38
2023-04-20T02:38:35.165Z,96712.13
2023-04-20T02:39:36.863Z,96710.88
2023-04-20T02:40:38.612Z,96704.84
2023-04-20T02:41:41.195Z,96707.91
2023-04-20T02:42:42.995Z,96707.09
2023-04-20T02:43:44.879Z,96709.06
2023-04-20T02:44:46.704Z,96707.09
2023-04-20T02:45:48.571Z,96709.31
2023-04-20T02:46:52.287Z,96708.81
2023-04-20T02:47:54.544Z,96703.41
2023-04-20T02:48:56.986Z,96704.03
2023-04-20T02:49:58.830Z,96705.66
2023-04-20T02:51:01.381Z,96706.00
2023-04-20T02:52:03.266Z,96703.78
2023-04-20T02:53:05.321Z,96699.59
2023-04-20T02:54:07.136Z,96706.38
2023-04-20T02:55:09.013Z,96704.75
2023-04-20T02:56:11.080Z,96705.75
2023-04-20T02:57:12.971Z,96703.97
2023-04-20T02:58:14.729Z,96704.75
2023-04-20T02:59:17.472Z,96697.00
2023-04-20T03:00:19.937Z,96695.84
2023-04-20T03:01:22.048Z,96696.28
2023-04-20T03:02:24.051Z,96697.28
2023-04-20T03:03:26.112Z,96697.28
2023-04-20T03:04:28.140Z,96687.25
2023-04-20T03:05:30.209Z,96688.59
2023-04-20T03:06:32.768Z,96690.22
2023-04-20T03:07:34.574Z,96687.97
2023-04-20T03:08:36.633Z,96685.03
2023-04-20T03:09:38.411Z,96690.03
2023-04-20T03:10:40.190Z,96687.44
2023-04-20T03:11:42.000Z,96684.03
2023-04-20T03:12:44.258Z,96691.38
2023-04-20T03:13:46.069Z,96694.16
2023-04-20T03:14:48.105Z,96684.59
2023-04-20T03:15:49.888Z,96682.78
2023-04-20T03:16:51.832Z,96676.00
2023-04-20T03:17:53.734Z,96680.81
2023-04-20T03:18:55.605Z,96681.19
2023-04-20T03:19:57.707Z,96676.00
2023-04-20T03:20:59.477Z,96680.03
2023-04-20T03:22:01.464Z,96673.25
2023-04-20T03:23:03.312Z,96679.06
2023-04-20T03:24:07.102Z,96673.44
2023-04-20T03:25:09.476Z,96679.94
2023-04-20T03:26:11.276Z,96678.25
2023-04-20T03:27:13.004Z,96676.84
2023-04-20T03:28:16.316Z,96677.81
2023-04-20T03:29:18.427Z,96681.38
2023-04-20T03:30:20.453Z,96677.47
2023-04-20T03:31:22.267Z,96680.03
2023-04-20T03:32:24.103Z,96682.97
2023-04-20T03:33:27.177Z,96683.59
2023-04-20T03:34:28.910Z,96680.66
2023-04-20T03:35:30.730Z,96675.75
2023-04-20T03:36:33.020Z,96680.75
2023-04-20T03:37:35.125Z,96680.41
2023-04-20T03:38:37.109Z,96676.81
2023-04-20T03:39:38.834Z,96666.91
2023-04-20T03:40:40.683Z,96665.91
2023-04-20T03:41:42.548Z,96673.03
2023-04-20T03:42:44.338Z,96667.63
2023-04-20T03:43:46.174Z,96667.78
2023-04-20T03:44:47.936Z,96667.44
2023-04-20T03:45:49.846Z,96667.06
2023-04-20T03:46:51.799Z,96674.66
2023-04-20T03:47:53.645Z,96673.25
2023-04-20T03:48:55.494Z,96673.44
2023-04-20T03:49:57.288Z,96669.03
2023-04-20T03:50:59.221Z,96667.88
2023-04-20T03:52:00.965Z,96669.31
2023-04-20T03:53:02.770Z,96665.72
2023-04-20T03:54:06.227Z,96670.09
2023-04-20T03:55:08.171Z,96661.72
2023-04-20T03:56:09.940Z,96665.91
2023-04-20T03:57:11.737Z,96667.53
2023-04-20T03:58:13.494Z,96665.72
2023-04-20T03:59:15.854Z,96660.38
2023-04-20T04:00:17.849Z,96659.38
2023-04-20T04:01:19.639Z,96658.13
2023-04-20T04:02:22.973Z,96663.50
2023-04-20T04:03:25.185Z,96658.66
2023-04-20T04:04:27.477Z,96665.28
2023-04-20T04:05:29.509Z,96661.25
2023-04-20T04:06:32.340Z,96660.63
2023-04-20T04:07:34.131Z,96661.63
2023-04-20T04:08:36.074Z,96667.63
2023-04-20T04:09:37.871Z,96666.63
2023-04-20T04:10:41.321Z,96676.00
2023-04-20T04:11:43.191Z,96669.84
2023-04-20T04:12:47.625Z,96669.84
2023-04-20T04:13:49.601Z,96672.19
2023-04-20T04:14:51.453Z,96661.19
2023-04-20T04:15:53.128Z,96669.94
2023-04-20T04:16:55.003Z,96668.34
2023-04-20T04:17:56.927Z,96663.00
2023-04-20T04:18:58.737Z,96666.38
2023-04-20T04:20:02.377Z,96659.75
2023-04-20T04:21:04.336Z,96664.50
2023-04-20T04:22:07.534Z,96666.09
2023-04-20T04:23:09.312Z,96665.47
2023-04-20T04:24:11.037Z,96655.47
2023-04-20T04:25:13.359Z,96666.19
2023-04-20T04:26:15.458Z,96662.19
2023-04-20T04:27:18.309Z,96666.91
2023-04-20T04:28:20.165Z,96665.72
2023-04-20T04:29:22.612Z,96667.59
2023-04-20T04:30:24.418Z,96666.88
2023-04-20T04:31:26.266Z,96664.75
2023-04-20T04:32:28.097Z,96665.19
2023-04-20T04:33:30.103Z,96669.59
2023-04-20T04:34:33.952Z,96664.41
2023-04-20T04:35:35.926Z,96661.53
2023-04-20T04:36:37.728Z,96669.47
2023-04-20T04:37:39.676Z,96665.56
2023-04-20T04:38:45.022Z,96660.81
2023-04-20T04:39:46.968Z,96673.44
2023-04-20T04:40:48.838Z,96665.28
2023-04-20T04:41:51.433Z,96664.94
2023-04-20T04:42:53.242Z,96663.75
2023-04-20T04:43:55.069Z,96662.78
2023-04-20T04:44:57.342Z,96661.78
2023-04-20T04:45:59.489Z,96666.78
2023-04-20T04:47:02.865Z,96664.81
2023-04-20T04:48:08.160Z,96658.63
2023-04-20T04:49:10.790Z,96660.09
2023-04-20T04:50:13.233Z,96661.69
2023-04-20T04:51:15.008Z,96653.91
2023-04-20T04:52:16.743Z,96659.25
2023-04-20T04:53:18.518Z,96657.03
2023-04-20T04:54:20.383Z,96657.78
2023-04-20T04:55:22.229Z,96654.38
2023-04-20T04:56:24.190Z,96657.78
2023-04-20T04:57:26.678Z,96650.63
2023-04-20T04:58:28.556Z,96659.56
2023-04-20T04:59:30.383Z,96653.75
2023-04-20T05:00:32.282Z,96645.38
2023-04-20T05:01:34.091Z,96661.72
2023-04-20T05:02:36.090Z,96660.28
2023-04-20T05:03:38.346Z,96658.84
2023-04-20T05:04:40.302Z,96665.03
2023-04-20T05:05:42.321Z,96668.41
2023-04-20T05:06:44.199Z,96663.06
2023-04-20T05:07:46.051Z,96663.50
2023-04-20T05:08:47.840Z,96665.91
2023-04-20T05:09:49.639Z,96674.28
2023-04-20T05:10:51.358Z,96671.34
2023-04-20T05:11:53.149Z,96668.13
2023-04-20T05:12:54.882Z,96665.56
2023-04-20T05:13:56.709Z,96664.19
2023-04-20T05:14:58.509Z,96670.19
2023-04-20T05:16:00.763Z,96673.22
2023-04-20T05:17:03.415Z,96672.22
2023-04-20T05:18:05.421Z,96679.03
2023-04-20T05:19:07.293Z,96670.00
2023-04-20T05:20:10.854Z,96679.38
2023-04-20T05:21:12.822Z,96673.84
2023-04-20T05:22:14.776Z,96664.91
2023-04-20T05:23:17.062Z,96671.69
2023-04-20T05:24:19.782Z,96676.88
2023-04-20T05:25:21.660Z,96677.06
2023-04-20T05:26:23.469Z,96679.28
2023-04-20T05:27:25.217Z,96677.69
2023-04-20T05:28:27.148Z,96680.44
2023-04-20T05:29:28.952Z,96669.63
2023-04-20T05:30:30.737Z,96673.03
2023-04-20T05:31:33.781Z,96673.47
2023-04-20T05:32:35.687Z,96677.06
2023-04-20T05:33:37.567Z,96681.16
2023-04-20T05:34:39.338Z,96680.91
2023-04-20T05:35:41.286Z,96680.09
2023-04-20T05:36:43.265Z,96679.75
2023-04-20T05:37:45.214Z,96673.84
2023-04-20T05:38:47.091Z,96671.50
2023-04-20T05:39:48.864Z,96675.16
2023-04-20T05:40:52.103Z,96673.00
2023-04-20T05:41:53.970Z,96677.56
2023-04-20T05:42:55.820Z,96682.50
2023-04-20T05:43:57.777Z,96683.47
2023-04-20T05:44:59.559Z,96677.50
2023-04-20T05:46:01.347Z,96677.84
2023-04-20T05:47:06.599Z,96666.31
2023-04-20T05:48:08.344Z,96673.38
2023-04-20T05:49:10.160Z,96678.47
2023-04-20T05:50:12.012Z,96671.94
2023-04-20T05:51:14.319Z,96667.97
2023-04-20T05:52:16.081Z,96674.50
2023-04-20T05:53:17.934Z,96675.50
2023-04-20T05:54:19.789Z,96674.06
2023-04-20T05:55:23.001Z,96670.69
2023-04-20T05:56:25.020Z,96669.84
2023-04-20T05:57:26.857Z,96675.59
2023-04-20T05:58:28.697Z,96673.28
2023-04-20T05:59:30.644Z,96668.16
2023-04-20T06:00:32.583Z,96677.63
2023-04-20T06:01:34.641Z,96670.69
2023-04-20T06:02:37.123Z,96665.16
2023-04-20T06:03:39.378Z,96666.75
2023-04-20T06:04:43.874Z,96667.56
2023-04-20T06:05:46.285Z,96677.72
2023-04-20T06:06:48.112Z,96673.00
2023-04-20T06:07:49.894Z,96667.63
2023-04-20T06:08:52.480Z,96677.19
2023-04-20T06:09:54.578Z,96671.81
2023-04-20T06:10:57.443Z,96672.44
2023-04-20T06:12:00.601Z,96670.09
2023-04-20T06:13:02.544Z,96671.31
2023-04-20T06:14:04.325Z,96677.75
2023-04-20T06:15:11.228Z,96675.41
2023-04-20T06:16:13.230Z,96671.81
2023-04-20T06:17:15.508Z,96680.59
2023-04-20T06:18:17.260Z,96676.03
2023-04-20T06:19:19.229Z,96684.44
2023-04-20T06:20:21.453Z,96685.06
2023-04-20T06:21:24.899Z,96684.22
2023-04-20T06:22:26.922Z,96683.38
2023-04-20T06:23:28.688Z,96690.34
2023-04-20T06:24:30.480Z,96687.38
2023-04-20T06:25:32.328Z,96688.63
2023-04-20T06:26:34.130Z,96688.44
2023-04-20T06:27:36.075Z,96690.84
2023-04-20T06:28:38.066Z,96684.66
2023-04-20T06:29:39.878Z,96683.47
2023-04-20T06:30:41.764Z,96687.25
2023-04-20T06:31:43.758Z,96677.88
2023-04-20T06:32:46.865Z,96682.25
2023-04-20T06:33:48.638Z,96680.25
2023-04-20T06:34:51.496Z,96682.69
2023-04-20T06:35:54.920Z,96685.66
2023-04-20T06:36:56.868Z,96682.88
2023-04-20T06:37:58.825Z,96681.88
2023-04-20T06:39:00.733Z,96685.47
2023-04-20T06:40:05.852Z,96683.88
2023-04-20T06:41:07.725Z,96678.69
2023-04-20T06:42:09.573Z,96691.03
2023-04-20T06:43:11.378Z,96681.44
2023-04-20T06:44:13.164Z,96685.06
2023-04-20T06:45:15.017Z,96682.25
2023-04-20T06:46:18.576Z,96678.50
2023-04-20T06:47:21.114Z,96683.69
2023-04-20T06:48:32.146Z,96677.50
2023-04-20T06:49:34.965Z,96680.97
2023-04-20T06:50:36.774Z,96673.56
2023-04-20T06:51:39.549Z,96673.22
2023-04-20T06:52:41.445Z,96673.66
2023-04-20T06:53:43.264Z,96679.06
2023-04-20T06:54:45.219Z,96675.50
2023-04-20T06:55:47.085Z,96669.28
2023-04-20T06:56:48.978Z,96675.72
2023-04-20T06:57:50.898Z,96677.16
2023-04-20T06:58:52.687Z,96679.31
2023-04-20T06:59:54.548Z,96681.91
2023-04-20T07:00:56.313Z,96680.91
2023-04-20T07:01:58.273Z,96671.75
2023-04-20T07:03:00.417Z,96676.00
2023-04-20T07:04:02.442Z,96676.25
2023-04-20T07:05:04.624Z,96668.06
2023-04-20T07:06:07.595Z,96670.31
2023-04-20T07:07:10.549Z,96672.31
2023-04-20T07:08:12.301Z,96666.38
2023-04-20T07:09:14.083Z,96660.25
2023-04-20T07:10:16.399Z,96665.88
2023-04-20T07:11:18.204Z,96665.53
2023-04-20T07:12:21.589Z,96664.91
2023-04-20T07:13:23.411Z,96664.50
2023-04-20T07:14:26.571Z,96656.53
2023-04-20T07:15:28.373Z,96657.75
2023-04-20T07:16:30.203Z,96658.22
2023-04-20T07:17:32.448Z,96654.41
2023-04-20T07:18:35.360Z,96660.97
2023-04-20T07:19:37.871Z,96669.81
2023-04-20T07:20:39.768Z,96670.63
2023-04-20T07:21:42.026Z,96672.63
2023-04-20T07:22:43.842Z,96672.00
2023-04-20T07:23:45.751Z,96668.44
2023-04-20T07:24:47.469Z,96670.22
2023-04-20T07:25:49.298Z,96673.44
2023-04-20T07:26:51.817Z,96671.44
2023-04-20T07:27:53.716Z,96666.03
2023-04-20T07:28:55.739Z,96670.47
2023-04-20T07:29:58.932Z,96672.69
2023-04-20T07:31:00.787Z,96668.69
2023-04-20T07:32:02.602Z,96661.91
2023-04-20T07:33:04.521Z,96664.28
2023-04-20T07:34:06.333Z,96657.91
2023-04-20T07:35:08.504Z,96664.31
2023-04-20T07:36:10.884Z,96663.31
2023-04-20T07:37:13.644Z,96664.09
2023-04-20T07:38:15.936Z,96663.13
2023-04-20T07:39:18.006Z,96662.72
2023-04-20T07:40:20.150Z,96656.91
2023-04-20T07:41:23.448Z,96659.50
2023-04-20T07:42:25.313Z,96657.75
2023-04-20T07:43:27.328Z,96656.72
2023-04-20T07:44:29.143Z,96658.72
2023-04-20T07:45:31.051Z,96655.94
2023-04-20T07:46:33.030Z,96655.56
2023-04-20T07:47:35.462Z,96661.19
2023-04-20T07:48:37.804Z,96657.38
2023-04-20T07:49:41.188Z,96665.97
2023-04-20T07:50:43.080Z,96654.78
2023-04-20T07:51:45.716Z,96659.78
2023-04-20T07:52:47.643Z,96662.38
2023-04-20T07:53:49.506Z,96661.97
2023-04-20T07:54:54.166Z,96666.59
2023-04-20T07:55:56.308Z,96662.41
2023-04-20T07:56:58.193Z,96661.59
2023-04-20T07:58:00.928Z,96664.00
2023-04-20T07:59:02.874Z,96667.81
2023-04-20T08:00:08.953Z,96664.44
2023-04-20T08:01:11.551Z,96671.06
2023-04-20T08:02:13.528Z,96661.25
2023-04-20T08:03:15.983Z,96667.66
2023-04-20T08:04:18.122Z,96658.63
2023-04-20T08:05:20.303Z,96655.25
2023-04-20T08:06:22.425Z,96660.63
2023-04-20T08:07:24.373Z,96665.66
2023-04-20T08:08:26.120Z,96662.63
2023-04-20T08:09:28.821Z,96661.22
2023-04-20T08:10:30.898Z,96663.44
2023-04-20T08:11:33.075Z,96658.41
2023-04-20T08:12:34.863Z,96653.03
2023-04-20T08:13:37.599Z,96658.03
2023-04-20T08:14:40.729Z,96654.41
2023-04-20T08:15:42.579Z,96661.25
2023-04-20T08:16:44.509Z,96658.84
2023-04-20T08:17:46.330Z,96657.63
2023-04-20T08:18:48.208Z,96652.81
2023-04-20T08:19:50.129Z,96657.22
2023-04-20T08:20:51.919Z,96650.63
2023-04-20T08:21:54.552Z,96657.63
2023-04-20T08:22:56.506Z,96657.81
2023-04-20T08:23:58.297Z,96655.22
2023-04-20T08:25:00.201Z,96657.81
2023-04-20T08:26:02.071Z,96661.00
2023-04-20T08:27:03.897Z,96656.81
2023-04-20T08:28:11.755Z,96660.00
2023-04-20T08:29:14.222Z,96643.94
2023-04-20T08:30:16.267Z,96653.94
2023-04-20T08:31:18.182Z,96652.34
2023-04-20T08:32:22.959Z,96653.91
2023-04-20T08:33:24.818Z,96661.13
2023-04-20T08:34:26.721Z,96645.28
2023-04-20T08:35:28.698Z,96657.47
2023-04-20T08:36:30.532Z,96648.25
2023-04-20T08:37:33.164Z,96654.03
2023-04-20T08:38:35.212Z,96653.22
2023-04-20T08:39:38.313Z,96645.59
2023-04-20T08:40:40.788Z,96644.16
2023-04-20T08:41:42.598Z,96642.09
2023-04-20T08:42:44.392Z,96637.28
2023-04-20T08:43:46.964Z,96633.22
2023-04-20T08:44:48.991Z,96633.59
2023-04-20T08:45:52.082Z,96634.41
2023-04-20T08:46:54.788Z,96628.75
2023-04-20T08:47:58.644Z,96636.97
2023-04-20T08:49:04.425Z,96632.97
2023-04-20T08:50:06.960Z,96626.47
2023-04-20T08:51:09.348Z,96620.91
2023-04-20T08:52:12.409Z,96617.91
2023-04-20T08:53:14.645Z,96625.88
2023-04-20T08:54:17.257Z,96627.84
2023-04-20T08:55:20.668Z,96619.38
2023-04-20T08:56:42.828Z,96616.09
2023-04-20T08:57:44.759Z,96619.94
2023-04-20T08:58:46.575Z,96619.47
2023-04-20T08:59:48.365Z,96618.63
2023-04-20T09:00:50.232Z,96619.59
2023-04-20T09:01:53.808Z,96624.38
2023-04-20T09:02:56.368Z,96619.38
2023-04-20T09:03:59.185Z,96613.13
2023-04-20T09:05:01.881Z,96615.94
2023-04-20T09:06:04.702Z,96611.44
2023-04-20T09:07:07.614Z,96621.84
2023-04-20T09:08:09.674Z,96610.34
2023-04-20T09:09:12.001Z,96618.41
2023-04-20T09:10:13.903Z,96613.41
2023-04-20T09:11:25.572Z,96612.44
2023-04-20T09:12:29.791Z,96613.19
2023-04-20T09:13:31.611Z,96605.78
2023-04-20T09:14:49.200Z,96606.75
2023-04-20T09:15:51.215Z,96608.13
2023-04-20T09:16:57.144Z,96608.13
2023-04-20T09:17:59.846Z,96598.09
2023-04-20T09:19:01.662Z,96598.09
2023-04-20T09:20:05.397Z,96599.50
2023-04-20T09:21:10.998Z,96603.63
2023-04-20T09:22:12.970Z,96599.72
2023-04-20T09:23:18.505Z,96595.56
2023-04-20T09:24:21.814Z,96592.84
2023-04-20T09:25:24.672Z,96594.38
2023-04-20T09:26:26.515Z,96585.78
2023-04-20T09:27:29.048Z,96591.66
2023-04-20T09:28:39.378Z,96587.94
2023-04-20T09:29:41.391Z,96583.44
2023-04-20T09:30:47.283Z,96586.28
2023-04-20T09:31:49.751Z,96581.41
2023-04-20T09:33:01.673Z,96587.78
2023-04-20T09:34:04.120Z,96576.88
2023-04-20T09:35:08.215Z,96580.06
2023-04-20T09:36:11.814Z,96584.50
2023-04-20T09:37:15.882Z,96577.00
2023-04-20T09:38:17.793Z,96583.97
2023-04-20T09:39:20.521Z,96576.69
2023-04-20T09:40:23.468Z,96578.84
2023-04-20T09:41:25.487Z,96574.28
2023-04-20T09:42:29.076Z,96575.09
2023-04-20T09:43:31.532Z,96576.81
2023-04-20T09:44:33.611Z,96572.94
2023-04-20T09:45:36.411Z,96573.66
2023-04-20T09:46:40.870Z,96576.84
2023-04-20T09:47:43.277Z,96575.25
2023-04-20T09:48:45.118Z,96574.13
2023-04-20T09:49:47.820Z,96572.88
2023-04-20T09:50:51.461Z,96572.88
2023-04-20T09:51:53.810Z,96567.34
2023-04-20T09:52:56.300Z,96571.22
2023-04-20T09:53:59.109Z,96579.31
2023-04-20T09:55:01.106Z,96574.44
2023-04-20T09:56:03.488Z,96574.31
2023-04-20T09:57:06.249Z,96565.53
2023-04-20T09:58:09.915Z,96570.22
2023-04-20T09:59:12.267Z,96570.69
2023-04-20T10:00:14.379Z,96566.69
2023-04-20T10:01:16.178Z,96567.59
2023-04-20T10:02:18.078Z,96556.31
2023-04-20T10:03:20.690Z,96562.09
2023-04-20T10:04:22.999Z,96552.25
2023-04-20T10:05:39.856Z,96561.84
2023-04-20T10:06:52.434Z,96556.78
2023-04-20T10:07:59.505Z,96550.72
2023-04-20T10:09:02.369Z,96560.34
2023-04-20T10:10:08.354Z,96546.63
2023-04-20T10:11:10.561Z,96548.41
2023-04-20T10:12:14.117Z,96547.97
2023-04-20T10:13:17.305Z,96550.34
2023-04-20T10:14:21.068Z,96551.59
2023-04-20T10:15:24.398Z,96554.63
2023-04-20T10:16:26.982Z,96548.63
2023-04-20T10:17:32.412Z,96542.53
2023-04-20T10:18:34.495Z,96547.06
2023-04-20T10:19:46.900Z,96548.81
2023-04-20T10:20:49.331Z,96546.91
2023-04-20T10:21:52.785Z,96546.44
2023-04-20T10:22:55.329Z,96542.75
2023-04-20T10:23:59.146Z,96537.19
2023-04-20T10:25:02.854Z,96542.44
2023-04-20T10:26:04.661Z,96532.09
2023-04-20T10:27:22.326Z,96537.59
2023-04-20T10:28:24.370Z,96534.00
2023-04-20T10:29:26.874Z,96533.19
2023-04-20T10:30:29.639Z,96529.72
2023-04-20T10:31:42.928Z,96527.53
2023-04-20T10:32:44.767Z,96526.84
2023-04-20T10:33:50.503Z,96526.50
2023-04-20T10:35:02.129Z,96525.56
2023-04-20T10:36:04.196Z,96531.44
2023-04-20T10:37:09.213Z,96525.16
2023-04-20T10:38:11.728Z,96522.22
2023-04-20T10:39:15.971Z,96513.06
2023-04-20T10:40:27.346Z,96516.50
2023-04-20T10:41:29.162Z,96511.69
2023-04-20T10:42:41.414Z,96516.69
2023-04-20T10:43:43.800Z,96507.72
2023-04-20T10:44:49.400Z,96509.50
2023-04-20T10:45:51.255Z,96513.75
2023-04-20T10:46:54.946Z,96510.25
2023-04-20T10:47:57.475Z,96508.63
2023-04-20T10:49:04.938Z,96505.75
2023-04-20T10:50:12.976Z,96507.00
2023-04-20T10:51:14.757Z,96503.84
2023-04-20T10:52:16.501Z,96500.16
2023-04-20T10:53:22.117Z,96494.34
2023-04-20T10:54:24.015Z,96502.44
2023-04-20T10:55:26.363Z,96499.72
2023-04-20T10:56:28.315Z,96495.97
2023-04-20T10:57:30.197Z,96494.38
2023-04-20T10:58:32.000Z,96491.25
2023-04-20T10:59:37.652Z,96497.50
2023-04-20T11:00:39.470Z,96490.56
2023-04-20T11:01:41.702Z,96494.81
2023-04-20T11:02:47.468Z,96485.63
2023-04-20T11:03:52.000Z,96482.81
2023-04-20T11:04:57.072Z,96494.91
2023-04-20T11:06:01.923Z,96493.06
2023-04-20T11:07:08.022Z,96488.38
2023-04-20T11:08:09.976Z,96491.84
2023-04-20T11:09:23.016Z,96477.78
2023-04-20T11:10:37.344Z,96479.19
2023-04-20T11:11:39.537Z,96481.16
2023-04-20T11:12:41.352Z,96481.59
2023-04-20T11:13:43.372Z,96479.88
2023-04-20T11:14:55.086Z,96477.09
2023-04-20T11:15:57.952Z,96469.63
2023-04-20T11:17:00.015Z,96474.75
2023-04-20T11:18:08.911Z,96475.59
2023-04-20T11:19:10.810Z,96476.69
2023-04-20T11:20:14.083Z,96471.41
2023-04-20T11:21:16.024Z,96472.59
2023-04-20T11:22:21.967Z,96466.34
2023-04-20T11:23:25.002Z,96465.31
2023-04-20T11:24:31.266Z,96465.94
2023-04-20T11:25:33.098Z,96469.13
2023-04-20T11:26:39.951Z,96469.13
2023-04-20T11:27:42.393Z,96464.16
2023-04-20T11:28:55.784Z,96463.41
2023-04-20T11:29:58.621Z,96462.88
2023-04-20T11:31:00.733Z,96453.38
2023-04-20T11:32:07.357Z,96469.78
2023-04-20T11:33:11.228Z,96455.50
2023-04-20T11:34:19.531Z,96462.63
2023-04-20T11:35:21.382Z,96466.63
2023-04-20T11:36:23.893Z,96466.31
2023-04-20T11:37:25.703Z,96454.41
2023-04-20T11:38:31.656Z,96464.16
2023-04-20T11:39:34.174Z,96475.72
2023-04-20T11:40:36.345Z,96467.66
2023-04-20T11:41:39.480Z,96466.91
2023-04-20T11:42:41.351Z,96460.59
2023-04-20T11:43:46.391Z,96468.06
2023-04-20T11:44:49.567Z,96467.56
2023-04-20T11:45:51.419Z,96469.41
2023-04-20T11:46:54.565Z,96465.44
2023-04-20T11:47:56.508Z,96466.66
2023-04-20T11:49:00.536Z,96472.66
2023-04-20T11:50:02.331Z,96471.72
2023-04-20T11:51:04.288Z,96476.50
2023-04-20T11:52:06.179Z,96473.44
2023-04-20T11:53:10.088Z,96470.75
2023-04-20T11:54:12.116Z,96477.03
2023-04-20T11:55:14.162Z,96476.34
2023-04-20T11:56:17.993Z,96481.50
2023-04-20T11:57:21.943Z,96479.06
2023-04-20T11:58:23.839Z,96484.25
2023-04-20T11:59:25.819Z,96487.44
2023-04-20T12:00:27.704Z,96480.22
2023-04-20T12:01:29.810Z,96471.31
2023-04-20T12:02:31.769Z,96486.03
2023-04-20T12:03:34.055Z,96483.84
2023-04-20T12:04:36.241Z,96486.59
2023-04-20T12:05:38.431Z,96479.66
2023-04-20T12:06:40.302Z,96480.81
2023-04-20T12:07:42.209Z,96486.75
2023-04-20T12:08:44.167Z,96492.81
2023-04-20T12:09:45.974Z,96489.66
2023-04-20T12:10:47.791Z,96486.19
2023-04-20T12:11:49.589Z,96491.63
2023-04-20T12:12:51.305Z,96491.47
2023-04-20T12:13:54.779Z,96477.31
2023-04-20T12:14:56.614Z,96484.59
2023-04-20T12:15:58.427Z,96490.50
2023-04-20T12:17:04.249Z,96482.59